ATL weather

Hartsfield Jackson Atlanta International Airport
Atlanta, Georgia, United States

Public forecast

Using degrees Fahrenheit for public forecast. Weather courtesy of forecast.io.

METAR (pilot weather report)

Retrieved 2017/01/20 05:24 UTC (15 minutes ago):

KATL 200524Z 18006KT 4SM RA BR FEW008 SCT015 BKN030 OVC150 17/16 A2986

TAF (pilot weather forecast)

Forecast is more than 12 hours old.

Retrieved 2017/01/19 00:24 UTC (1 day ago):

TAF KATL 192320Z 2000/2106 14008KT P6SM VCSH SCT025 BKN040 OVC250 FM200200 15010KT P6SM -SHRA BKN015 OVC040 FM200600 19010KT 5SM SHRA BKN008 OVC015 FM201000 20008KT 4SM BR OVC007 FM201500 22008KT P6SM SCT010 BKN025 FM202000 22008KT P6SM SCT025 BKN040 FM210200 20005KT P6SM SCT007 OVC025